createdAt,value
2018-11-27T15:30:23.874Z,100952.05
2018-11-27T15:35:27.133Z,100947.74
2018-11-27T15:40:32.148Z,100950.72
2018-11-27T15:45:35.794Z,100960.52
2018-11-27T15:50:39.524Z,100953.48
2018-11-27T15:55:44.432Z,100966.13
2018-11-27T16:00:48.057Z,100974.85
2018-11-27T16:05:53.500Z,100981.77
2018-11-27T16:11:25.367Z,100977.25
2018-11-27T16:27:53.308Z,100987.62
2018-11-27T16:33:00.176Z,100996.28
2018-11-27T16:38:05.190Z,101005.88
2018-11-27T16:43:09.883Z,101012.45
2018-11-27T16:48:13.659Z,101017.07
2018-11-27T16:53:19.475Z,101015.63
2018-11-27T16:58:25.312Z,101026.13
2018-11-27T17:03:36.401Z,101023.41
2018-11-27T17:08:40.209Z,101034.22
2018-11-27T17:13:46.364Z,101040.53
2018-11-27T17:18:49.929Z,101035.80
2018-11-27T17:23:53.438Z,101038.00
2018-11-27T17:28:57.096Z,101033.28
2018-11-27T18:02:16.302Z,101075.48
2018-11-27T18:07:21.346Z,101079.90
2018-11-27T18:12:25.279Z,101069.07
2018-11-27T18:17:29.811Z,101065.97
2018-11-27T18:28:10.932Z,101073.70
2018-11-27T18:33:14.384Z,101075.52
2018-11-27T18:38:17.710Z,101077.03
2018-11-27T18:43:21.024Z,101075.47
2018-11-27T18:48:24.359Z,101074.05
2018-11-27T18:53:27.866Z,101081.08
2018-11-27T18:58:32.398Z,101087.48
2018-11-27T19:03:36.571Z,101091.61
2018-11-27T19:08:41.359Z,101093.87
2018-11-27T19:13:45.165Z,101093.23
2018-11-27T19:46:56.166Z,101120.06
2018-11-27T19:51:59.815Z,101131.27
2018-11-27T20:08:16.451Z,101177.18
2018-11-27T20:13:22.123Z,101181.22
2018-11-27T20:18:34.454Z,101191.38
2018-11-27T20:35:21.852Z,101185.63
2018-11-27T20:40:44.670Z,101183.06
2018-11-27T20:51:18.846Z,101199.66
2018-11-27T20:56:29.004Z,101196.81
2018-11-27T21:01:33.346Z,101200.80
2018-11-27T21:06:37.168Z,101208.34
2018-11-27T21:11:41.256Z,101201.73
2018-11-27T21:16:45.052Z,101194.86
2018-11-27T21:21:49.296Z,101206.44
2018-11-27T21:26:53.843Z,101225.30
2018-11-27T21:31:57.751Z,101218.40
2018-11-27T21:37:01.504Z,101219.58
2018-11-27T21:42:06.194Z,101219.73
2018-11-27T21:47:09.941Z,101221.84
2018-11-27T21:52:13.652Z,101227.55
2018-11-27T21:57:17.360Z,101222.78
2018-11-27T22:02:21.119Z,101225.48
2018-11-27T22:07:26.356Z,101231.06
2018-11-27T22:12:31.138Z,101241.75
2018-11-27T22:17:35.098Z,101242.11
2018-11-27T22:22:39.023Z,101246.87
2018-11-27T22:27:42.987Z,101259.45
2018-11-27T22:32:48.989Z,101256.52
2018-11-27T22:37:52.723Z,101256.31
2018-11-27T22:42:56.742Z,101249.73
2018-11-27T22:48:00.504Z,101248.74
2018-11-27T22:53:04.191Z,101268.36
2018-11-27T22:58:08.472Z,101271.05
2018-11-27T23:03:12.317Z,101259.98
2018-11-27T23:08:16.347Z,101263.23
2018-11-27T23:13:20.076Z,101262.02
2018-11-27T23:18:23.894Z,101264.66
2018-11-27T23:23:27.976Z,101257.73
2018-11-27T23:28:31.750Z,101251.86
2018-11-27T23:33:35.702Z,101254.39
2018-11-27T23:38:39.501Z,101261.66
2018-11-27T23:43:43.278Z,101262.44
2018-11-27T23:48:48.029Z,101249.55
2018-11-27T23:53:51.784Z,101258.12
2018-11-27T23:58:55.852Z,101263.43
